Weather at Cincinnati Northern Kentucky International Airport

Public forecast

Using degrees Fahrenheit for public forecast. Weather courtesy of forecast.io.

Current aviation weather report (METAR) for Cincinnati Northern Kentucky International Airport

Retrieved 2021/01/24 15:18 UTC (2 minutes ago):

KCVG 241518Z COR 11007KT 6SM -RA OVC050 M02/M06 A3013 RMK AO2 RAB05SNE05 P0001 T10221056

Aviation forecast (TAF) for Cincinnati Northern Kentucky International Airport

Retrieved 2021/01/24 12:34 UTC (3 hours ago):

TAF KCVG 241131Z 2412/2518 12009KT P6SM OVC090 FM241400 13007KT P6SM VCSH OVC035 FM241500 15007KT 5SM -SN BR OVC013 FM241700 16006KT 5SM -FZRASN BR OVC008 FM241900 17006KT 5SM BR OVC008 FM250200 14005KT 4SM BR OVC004 FM251300 07009KT 2SM -RA BR OVC006